Time;durP1;ratioP1;P1;durP2;ratioP2;P2;SDS_P1;SDS_P2;PMS_P1;PMS_P2;Temp;Humidity;BMP_temperature;BMP_pressure;BME280_temperature;BME280_humidity;BME280_pressure;Samples;Min_cycle;Max_cycle;Signal;HPM_P1;HPM_P2
2023/10/23 00:00:57;;;;;;;5.00;4.20;;;8.90;99.90;;;;;;4956763;28;20880;-59
2023/10/23 00:03:25;;;;;;;4.70;4.20;;;8.90;99.90;;;;;;4957323;28;20478;-59
2023/10/23 00:05:55;;;;;;;6.00;4.60;;;8.90;99.90;;;;;;4959178;28;20542;-59
2023/10/23 00:08:23;;;;;;;4.50;4.17;;;8.90;99.90;;;;;;4957979;28;20565;-59
2023/10/23 00:10:51;;;;;;;5.50;5.00;;;8.90;99.90;;;;;;4962806;28;20852;-59
2023/10/23 00:13:18;;;;;;;4.80;4.50;;;8.80;99.90;;;;;;4959224;28;20473;-60
2023/10/23 00:15:47;;;;;;;5.33;4.40;;;8.80;99.90;;;;;;4958361;28;20586;-59
2023/10/23 00:18:15;;;;;;;4.40;4.10;;;8.80;99.90;;;;;;4961776;28;20477;-59
2023/10/23 00:20:43;;;;;;;5.00;4.50;;;8.70;99.90;;;;;;4959158;28;20486;-59
2023/10/23 00:23:12;;;;;;;5.83;5.00;;;8.70;99.90;;;;;;4960121;28;20502;-59
2023/10/23 00:25:40;;;;;;;4.73;4.33;;;8.70;99.90;;;;;;4959613;28;20495;-59
2023/10/23 00:28:08;;;;;;;4.60;4.20;;;8.60;99.90;;;;;;4957462;28;20470;-58
2023/10/23 00:30:36;;;;;;;4.60;4.30;;;8.60;99.90;;;;;;4956340;28;21109;-59
2023/10/23 00:33:04;;;;;;;5.03;4.63;;;8.60;99.90;;;;;;4959152;28;20479;-59
2023/10/23 00:35:32;;;;;;;4.47;4.13;;;8.60;99.90;;;;;;4959173;28;20996;-59
2023/10/23 00:38:00;;;;;;;5.27;4.77;;;8.60;99.90;;;;;;4959711;28;20478;-59
2023/10/23 00:40:30;;;;;;;5.03;4.63;;;8.60;99.90;;;;;;4954373;28;20502;-59
2023/10/23 00:42:58;;;;;;;5.03;4.63;;;8.50;99.90;;;;;;4961476;28;21077;-59
2023/10/23 00:45:26;;;;;;;5.17;4.77;;;8.50;99.90;;;;;;4958142;28;20940;-59
2023/10/23 00:47:54;;;;;;;5.20;4.80;;;8.50;99.90;;;;;;4957277;28;20482;-59
2023/10/23 00:50:22;;;;;;;4.90;4.50;;;8.50;99.90;;;;;;4957876;28;20478;-59
2023/10/23 00:52:51;;;;;;;5.47;5.07;;;8.50;99.90;;;;;;4958143;28;20550;-59
2023/10/23 00:55:19;;;;;;;5.30;4.90;;;8.40;99.90;;;;;;4958239;28;20577;-58
2023/10/23 00:57:48;;;;;;;5.40;5.00;;;8.40;99.90;;;;;;4958415;28;20618;-59
2023/10/23 01:00:17;;;;;;;6.27;5.77;;;8.40;99.90;;;;;;4957587;28;20481;-59
2023/10/23 01:02:45;;;;;;;5.60;5.20;;;8.40;99.90;;;;;;4961833;28;20509;-59
2023/10/23 01:05:13;;;;;;;5.47;5.03;;;8.40;99.90;;;;;;4957902;28;20572;-59
2023/10/23 01:07:41;;;;;;;6.10;5.50;;;8.40;99.90;;;;;;4957242;28;20882;-59
2023/10/23 01:10:09;;;;;;;5.33;4.93;;;8.40;99.90;;;;;;4957761;28;20477;-59
2023/10/23 01:12:37;;;;;;;5.70;5.20;;;8.40;99.90;;;;;;4960036;28;20901;-59
2023/10/23 01:15:08;;;;;;;5.57;5.07;;;8.40;99.90;;;;;;4960290;28;20497;-59
2023/10/23 01:17:36;;;;;;;5.70;5.30;;;8.40;99.90;;;;;;4959372;28;20522;-59
2023/10/23 01:20:05;;;;;;;6.53;6.03;;;8.40;99.90;;;;;;4961559;28;20559;-59
2023/10/23 01:22:33;;;;;;;5.60;5.10;;;8.40;99.90;;;;;;4956668;28;20581;-59
2023/10/23 01:25:02;;;;;;;5.90;5.30;;;8.40;99.90;;;;;;4959648;28;20522;-59
2023/10/23 01:27:32;;;;;;;6.27;5.73;;;8.30;99.90;;;;;;4956453;28;20549;-57
2023/10/23 01:30:00;;;;;;;6.10;5.53;;;8.30;99.90;;;;;;4960475;28;20485;-59
2023/10/23 01:32:28;;;;;;;6.10;5.60;;;8.30;99.90;;;;;;4959685;28;20506;-59
2023/10/23 01:34:56;;;;;;;6.27;5.77;;;8.30;99.90;;;;;;4959781;28;20909;-59
2023/10/23 01:37:23;;;;;;;6.43;5.83;;;8.30;99.90;;;;;;4956657;28;20501;-59
2023/10/23 01:39:51;;;;;;;6.00;5.50;;;8.30;99.90;;;;;;4958686;28;20990;-59
2023/10/23 01:42:19;;;;;;;5.60;5.20;;;8.30;99.90;;;;;;4958823;28;21079;-59
2023/10/23 01:44:49;;;;;;;6.50;6.00;;;8.30;99.90;;;;;;4962142;28;20494;-59
2023/10/23 01:47:17;;;;;;;6.53;6.00;;;8.30;99.90;;;;;;4959453;28;20479;-58
2023/10/23 01:49:45;;;;;;;6.30;5.70;;;8.30;99.90;;;;;;4956782;28;20473;-59
2023/10/23 01:52:13;;;;;;;6.77;6.20;;;8.30;99.90;;;;;;4956051;28;20473;-59
2023/10/23 01:54:40;;;;;;;7.00;6.40;;;8.30;99.90;;;;;;4960035;28;20534;-59
2023/10/23 01:57:09;;;;;;;7.33;6.67;;;8.30;99.90;;;;;;4956173;28;20572;-58
2023/10/23 01:59:37;;;;;;;8.17;7.47;;;8.20;99.90;;;;;;4960156;28;20557;-59
2023/10/23 02:02:07;;;;;;;6.50;5.90;;;8.20;99.90;;;;;;4959827;28;20524;-59
2023/10/23 02:04:35;;;;;;;7.53;6.93;;;8.20;99.90;;;;;;4958820;28;20578;-59
2023/10/23 02:07:03;;;;;;;6.67;6.10;;;8.20;99.90;;;;;;4960090;28;20619;-59
2023/10/23 02:09:32;;;;;;;7.40;6.70;;;8.20;99.90;;;;;;4957395;28;21027;-59
2023/10/23 02:12:01;;;;;;;8.13;7.43;;;8.20;99.90;;;;;;4959578;28;20899;-59
2023/10/23 02:14:30;;;;;;;7.97;7.17;;;8.30;99.90;;;;;;4953432;28;20557;-59
2023/10/23 02:16:58;;;;;;;6.40;5.90;;;8.20;99.90;;;;;;4953227;28;20518;-59
2023/10/23 02:19:27;;;;;;;7.60;7.00;;;8.20;99.90;;;;;;4956506;28;20561;-59
2023/10/23 02:21:55;;;;;;;7.37;6.67;;;8.20;99.90;;;;;;4958848;28;20588;-59
2023/10/23 02:24:23;;;;;;;8.20;7.20;;;8.20;99.90;;;;;;4955935;28;20478;-59
2023/10/23 02:26:52;;;;;;;7.70;7.00;;;8.20;99.90;;;;;;4960021;28;20479;-59
2023/10/23 02:29:19;;;;;;;7.73;7.00;;;8.20;99.90;;;;;;4958905;28;20478;-59
2023/10/23 02:31:48;;;;;;;7.87;7.07;;;8.20;99.90;;;;;;4960793;28;20557;-59
2023/10/23 02:34:16;;;;;;;8.50;7.70;;;8.20;99.90;;;;;;4957417;28;20470;-59
2023/10/23 02:36:46;;;;;;;8.03;7.23;;;8.20;99.90;;;;;;4955909;28;20498;-59
2023/10/23 02:39:14;;;;;;;6.83;6.23;;;8.20;99.90;;;;;;4956672;28;20963;-59
2023/10/23 02:41:42;;;;;;;8.00;7.30;;;8.20;99.90;;;;;;4956823;28;20555;-59
2023/10/23 02:44:10;;;;;;;8.40;6.63;;;8.20;99.90;;;;;;4959264;28;20972;-59
2023/10/23 02:46:40;;;;;;;7.00;6.37;;;8.20;99.90;;;;;;4955334;28;20494;-59
2023/10/23 02:49:08;;;;;;;12.40;6.47;;;8.20;99.90;;;;;;4960080;28;20470;-58
2023/10/23 02:51:38;;;;;;;7.87;6.77;;;8.10;99.90;;;;;;4955386;28;20558;-59
2023/10/23 02:54:07;;;;;;;7.40;6.70;;;8.10;99.90;;;;;;4958559;28;20554;-59
2023/10/23 02:56:35;;;;;;;7.33;6.73;;;8.10;99.90;;;;;;4960131;28;20500;-59
2023/10/23 02:59:03;;;;;;;8.10;7.40;;;8.10;99.90;;;;;;4961805;28;20801;-58
2023/10/23 03:01:31;;;;;;;7.17;6.57;;;8.10;99.90;;;;;;4960561;28;20821;-59
2023/10/23 03:03:59;;;;;;;7.13;6.53;;;8.10;99.90;;;;;;4962071;28;20502;-59
2023/10/23 03:06:27;;;;;;;7.60;6.90;;;8.10;99.90;;;;;;4960544;28;20521;-59
2023/10/23 03:08:55;;;;;;;7.20;6.50;;;8.10;99.90;;;;;;4961405;28;20517;-59
2023/10/23 03:11:25;;;;;;;8.50;7.70;;;8.00;99.90;;;;;;4958074;28;20586;-58
2023/10/23 03:13:53;;;;;;;7.93;7.13;;;8.00;99.90;;;;;;4959833;28;21133;-58
2023/10/23 03:16:21;;;;;;;7.90;6.90;;;8.00;99.90;;;;;;4960745;28;20505;-59
2023/10/23 03:18:49;;;;;;;7.90;7.20;;;8.00;99.90;;;;;;4960872;28;20836;-59
2023/10/23 03:21:17;;;;;;;8.93;7.67;;;8.00;99.90;;;;;;4959576;28;20745;-59
2023/10/23 03:23:45;;;;;;;7.73;7.03;;;8.00;99.90;;;;;;4962456;28;20486;-59
2023/10/23 03:26:14;;;;;;;8.27;7.47;;;8.00;99.90;;;;;;4960102;28;20516;-59
2023/10/23 03:28:43;;;;;;;8.50;7.70;;;8.00;99.90;;;;;;4960885;28;20469;-59
2023/10/23 03:31:11;;;;;;;8.27;7.43;;;8.00;99.90;;;;;;4962027;28;21233;-59
2023/10/23 03:33:41;;;;;;;8.23;7.43;;;8.10;99.90;;;;;;4961921;28;21154;-59
2023/10/23 03:36:09;;;;;;;8.43;7.63;;;8.10;99.90;;;;;;4960217;28;20987;-59
2023/10/23 03:38:37;;;;;;;7.70;6.90;;;8.00;99.90;;;;;;4960822;28;20466;-59
2023/10/23 03:41:05;;;;;;;8.90;7.90;;;8.10;99.90;;;;;;4961108;28;20552;-59
2023/10/23 03:43:33;;;;;;;9.60;8.63;;;8.10;99.90;;;;;;4962785;28;22187;-59
2023/10/23 03:46:05;;;;;;;8.77;7.53;;;8.10;99.90;;;;;;4962482;28;20489;-59
2023/10/23 03:48:35;;;;;;;8.80;7.77;;;8.00;99.90;;;;;;4962344;28;20943;-59
2023/10/23 03:51:03;;;;;;;9.40;7.80;;;8.00;99.90;;;;;;4962359;28;20492;-59
2023/10/23 03:53:31;;;;;;;8.87;7.47;;;8.00;99.90;;;;;;4959116;28;20962;-59
2023/10/23 03:55:59;;;;;;;8.00;7.27;;;8.00;99.90;;;;;;4960516;28;20581;-59
2023/10/23 03:58:27;;;;;;;7.27;6.67;;;8.00;99.90;;;;;;4961829;28;20545;-59
2023/10/23 04:00:55;;;;;;;8.83;7.53;;;7.90;99.90;;;;;;4960387;28;20865;-59
2023/10/23 04:03:25;;;;;;;7.60;6.90;;;7.90;99.90;;;;;;4961119;28;20494;-59
2023/10/23 04:05:53;;;;;;;9.60;8.60;;;7.90;99.90;;;;;;4961658;28;20478;-59
2023/10/23 04:08:21;;;;;;;8.57;7.77;;;7.90;99.90;;;;;;4957540;28;20924;-58
2023/10/23 04:10:50;;;;;;;8.33;7.57;;;7.90;99.90;;;;;;4959127;28;20525;-58
2023/10/23 04:13:18;;;;;;;8.57;7.77;;;7.90;99.90;;;;;;4959204;28;21043;-59
2023/10/23 04:15:53;;;;;;;8.43;7.63;;;7.80;99.90;;;;;;4960558;28;20496;-59
2023/10/23 04:18:22;;;;;;;8.30;7.50;;;7.80;99.90;;;;;;4957009;28;20559;-59
2023/10/23 04:20:51;;;;;;;10.47;8.13;;;7.80;99.90;;;;;;4961488;28;20995;-59
2023/10/23 04:23:19;;;;;;;8.37;7.57;;;7.70;99.90;;;;;;4961601;28;21114;-61
2023/10/23 04:25:55;;;;;;;9.00;8.00;;;7.70;99.90;;;;;;4958191;28;20617;-60
2023/10/23 04:28:24;;;;;;;7.87;7.17;;;7.70;99.90;;;;;;4960925;28;20983;-61
2023/10/23 04:30:52;;;;;;;8.50;7.70;;;7.70;99.90;;;;;;4961827;28;20476;-58
2023/10/23 04:33:21;;;;;;;8.10;7.30;;;7.60;99.90;;;;;;4960370;28;20467;-58
2023/10/23 04:35:52;;;;;;;8.93;8.03;;;7.60;99.90;;;;;;4956703;28;20973;-58
2023/10/23 04:38:20;;;;;;;8.40;7.47;;;7.60;99.90;;;;;;4958335;28;20882;-59
2023/10/23 04:40:50;;;;;;;8.87;7.10;;;7.50;99.90;;;;;;4959157;28;20569;-59
2023/10/23 04:43:18;;;;;;;9.10;8.20;;;7.50;99.90;;;;;;4955554;28;21102;-59
2023/10/23 04:45:46;;;;;;;9.27;8.30;;;7.50;99.90;;;;;;4955171;28;20580;-59
2023/10/23 04:48:14;;;;;;;8.90;7.33;;;7.50;99.90;;;;;;4957360;28;20482;-58
2023/10/23 04:50:42;;;;;;;8.70;7.80;;;7.40;99.90;;;;;;4950752;28;20474;-59
2023/10/23 04:53:11;;;;;;;9.60;8.70;;;7.40;99.90;;;;;;4953443;28;20489;-59
2023/10/23 04:55:40;;;;;;;8.53;7.50;;;7.40;99.90;;;;;;4955950;28;20711;-58
2023/10/23 04:58:09;;;;;;;9.63;8.03;;;7.40;99.90;;;;;;4956236;28;20482;-59
2023/10/23 05:00:38;;;;;;;9.10;8.20;;;7.40;99.90;;;;;;4957986;28;20485;-59
2023/10/23 05:03:08;;;;;;;9.00;8.20;;;7.40;99.90;;;;;;4958815;28;20479;-60
2023/10/23 05:05:37;;;;;;;8.40;7.60;;;7.30;99.90;;;;;;4959345;28;20879;-59
2023/10/23 05:08:05;;;;;;;9.10;8.20;;;7.30;99.90;;;;;;4957332;28;20522;-58
2023/10/23 05:10:34;;;;;;;8.10;7.20;;;7.30;99.90;;;;;;4955300;28;20995;-60
2023/10/23 05:13:04;;;;;;;7.97;7.27;;;7.30;99.90;;;;;;4950760;28;20478;-59
2023/10/23 05:15:32;;;;;;;10.10;7.60;;;7.30;99.90;;;;;;4947495;28;20498;-59
2023/10/23 05:18:00;;;;;;;8.63;7.73;;;7.20;99.90;;;;;;4951609;28;20474;-60
2023/10/23 05:20:28;;;;;;;9.10;8.20;;;7.20;99.90;;;;;;4952649;28;20514;-59
2023/10/23 05:22:56;;;;;;;8.23;7.43;;;7.20;99.90;;;;;;4956328;28;20557;-59
2023/10/23 05:25:24;;;;;;;8.70;7.83;;;7.20;99.90;;;;;;4956713;28;20878;-59
2023/10/23 05:27:53;;;;;;;7.87;7.00;;;7.20;99.90;;;;;;4958457;28;21076;-59
2023/10/23 05:30:21;;;;;;;8.10;7.30;;;7.10;99.90;;;;;;4938770;28;21068;-59
2023/10/23 05:32:49;;;;;;;9.70;8.13;;;7.10;99.90;;;;;;4949653;28;22482;-59
2023/10/23 05:35:17;;;;;;;7.90;7.20;;;7.10;99.90;;;;;;4957116;28;20482;-59
2023/10/23 05:37:45;;;;;;;9.57;8.57;;;7.10;99.90;;;;;;4956433;28;20663;-58
2023/10/23 05:40:13;;;;;;;9.30;8.33;;;7.10;99.90;;;;;;4957664;28;20546;-59
2023/10/23 05:42:42;;;;;;;9.93;8.93;;;7.10;99.90;;;;;;4960932;28;20780;-59
2023/10/23 05:45:11;;;;;;;9.30;8.10;;;7.10;99.90;;;;;;4959428;28;20937;-59
2023/10/23 05:47:39;;;;;;;10.93;8.13;;;7.10;99.90;;;;;;4959339;28;20489;-59
2023/10/23 05:50:08;;;;;;;9.23;8.10;;;7.10;99.90;;;;;;4958682;28;20474;-58
2023/10/23 05:52:36;;;;;;;8.60;7.10;;;7.10;99.90;;;;;;4960386;28;20534;-58
2023/10/23 05:55:05;;;;;;;8.63;7.83;;;7.10;99.90;;;;;;4958393;28;20496;-59
2023/10/23 05:57:33;;;;;;;8.37;7.53;;;7.10;99.90;;;;;;4959881;28;20485;-59
2023/10/23 06:00:03;;;;;;;8.50;7.60;;;7.10;99.90;;;;;;4959803;28;20585;-59
2023/10/23 06:02:32;;;;;;;8.50;7.70;;;7.00;99.90;;;;;;4961515;28;20636;-59
2023/10/23 06:05:01;;;;;;;10.13;9.23;;;7.00;99.90;;;;;;4959319;28;20502;-59
2023/10/23 06:07:29;;;;;;;8.23;7.50;;;7.00;99.90;;;;;;4957670;28;20481;-59
2023/10/23 06:09:59;;;;;;;9.77;8.77;;;7.00;99.90;;;;;;4959936;28;20478;-58
2023/10/23 06:12:27;;;;;;;10.33;9.10;;;7.00;99.90;;;;;;4957716;28;20467;-58
2023/10/23 06:14:57;;;;;;;9.10;7.90;;;7.00;99.90;;;;;;4960160;28;20482;-59
2023/10/23 06:17:25;;;;;;;10.80;9.27;;;7.00;99.90;;;;;;4957042;28;20490;-59
2023/10/23 06:19:55;;;;;;;9.77;8.87;;;7.00;99.90;;;;;;4961932;28;20477;-59
2023/10/23 06:22:23;;;;;;;10.23;9.20;;;7.00;99.90;;;;;;4959984;28;20502;-59
2023/10/23 06:24:51;;;;;;;11.03;9.23;;;7.00;99.90;;;;;;4959865;28;20498;-59
2023/10/23 06:27:19;;;;;;;11.37;9.13;;;7.10;99.90;;;;;;4959307;28;20487;-59
2023/10/23 06:29:50;;;;;;;13.43;10.33;;;7.10;99.90;;;;;;4959041;28;20525;-59
2023/10/23 06:32:19;;;;;;;10.33;9.33;;;7.20;99.90;;;;;;4963609;28;20494;-58
2023/10/23 06:34:51;;;;;;;9.53;8.53;;;7.20;99.90;;;;;;4964610;28;20683;-59
2023/10/23 06:37:20;;;;;;;10.67;9.57;;;7.20;99.90;;;;;;4965851;28;20560;-59
2023/10/23 06:39:49;;;;;;;9.87;8.87;;;7.20;99.90;;;;;;4963829;28;20967;-59
2023/10/23 06:42:17;;;;;;;11.10;9.87;;;7.20;99.90;;;;;;4962848;28;20902;-59
2023/10/23 06:44:45;;;;;;;10.63;9.53;;;7.20;99.90;;;;;;4963261;28;20512;-60
2023/10/23 06:47:13;;;;;;;11.37;9.97;;;7.30;99.90;;;;;;4962346;28;20536;-59
2023/10/23 06:49:44;;;;;;;13.07;10.80;;;7.30;99.90;;;;;;4960758;28;20999;-59
2023/10/23 06:52:12;;;;;;;11.73;10.07;;;7.40;99.90;;;;;;4964366;28;20971;-59
2023/10/23 06:54:41;;;;;;;11.50;9.43;;;7.40;99.90;;;;;;4962383;28;20549;-60
2023/10/23 06:57:09;;;;;;;11.57;9.43;;;7.40;99.90;;;;;;4961876;28;20487;-59
2023/10/23 06:59:37;;;;;;;13.93;11.17;;;7.40;99.90;;;;;;4962864;28;20477;-60
2023/10/23 07:02:05;;;;;;;10.70;9.60;;;7.50;99.90;;;;;;4963906;28;21030;-60
2023/10/23 07:04:34;;;;;;;14.27;10.53;;;7.50;99.90;;;;;;4960887;28;20873;-59
2023/10/23 07:07:02;;;;;;;11.23;9.77;;;7.60;99.90;;;;;;4962311;28;20493;-59
2023/10/23 07:09:53;;;;;;;11.90;10.47;;;7.60;99.90;;;;;;4962742;28;20477;-60
2023/10/23 07:12:21;;;;;;;13.37;10.53;;;7.70;99.90;;;;;;4961058;28;20479;-60
2023/10/23 07:14:49;;;;;;;12.17;10.80;;;7.80;99.90;;;;;;4959635;28;20495;-59
2023/10/23 07:17:17;;;;;;;13.50;10.27;;;7.90;99.90;;;;;;4961980;28;20870;-60
2023/10/23 07:19:45;;;;;;;14.00;10.80;;;7.90;99.90;;;;;;4963940;28;20482;-60
2023/10/23 07:22:13;;;;;;;11.10;10.00;;;8.00;99.90;;;;;;4960485;28;20485;-59
2023/10/23 07:24:41;;;;;;;13.57;10.57;;;8.00;99.90;;;;;;4961686;28;20519;-59
2023/10/23 07:27:15;;;;;;;12.30;10.40;;;8.10;99.90;;;;;;4961780;28;20482;-60
2023/10/23 07:29:43;;;;;;;13.73;10.73;;;8.10;99.90;;;;;;4962181;28;20482;-59
2023/10/23 07:32:11;;;;;;;12.37;10.30;;;8.10;99.90;;;;;;4962745;28;20479;-60
2023/10/23 07:34:39;;;;;;;13.03;10.10;;;8.10;99.90;;;;;;4963018;28;20537;-59
2023/10/23 07:37:07;;;;;;;12.60;10.43;;;8.20;99.90;;;;;;4957848;28;20502;-60
2023/10/23 07:39:35;;;;;;;12.27;11.00;;;8.30;99.90;;;;;;4961018;28;20486;-59
2023/10/23 07:42:04;;;;;;;12.10;10.70;;;8.30;99.90;;;;;;4961009;28;20470;-59
2023/10/23 07:44:33;;;;;;;12.20;10.87;;;8.40;99.90;;;;;;4963766;28;20525;-59
2023/10/23 07:47:01;;;;;;;15.27;10.40;;;8.40;99.90;;;;;;4960782;28;20627;-59
2023/10/23 07:49:29;;;;;;;16.37;10.50;;;8.50;99.90;;;;;;4962204;28;20477;-60
2023/10/23 07:51:57;;;;;;;11.47;9.83;;;8.50;99.90;;;;;;4959461;28;20467;-59
2023/10/23 07:54:25;;;;;;;11.23;9.17;;;8.60;99.90;;;;;;4960662;28;20548;-58
2023/10/23 07:56:56;;;;;;;13.00;9.80;;;8.60;99.90;;;;;;4960990;28;20497;-59
2023/10/23 07:59:26;;;;;;;10.80;9.40;;;8.70;99.90;;;;;;4961310;28;23763;-59
2023/10/23 08:01:56;;;;;;;11.73;9.30;;;8.80;99.90;;;;;;4960438;28;20552;-59
2023/10/23 08:04:24;;;;;;;11.90;9.10;;;8.80;99.90;;;;;;4957218;28;20474;-59
2023/10/23 08:06:52;;;;;;;11.07;9.83;;;8.80;99.90;;;;;;4959636;28;20507;-60
2023/10/23 08:09:20;;;;;;;11.10;8.70;;;8.90;99.90;;;;;;4960108;28;20560;-59
2023/10/23 08:11:48;;;;;;;11.80;9.60;;;8.90;99.90;;;;;;4961738;28;20565;-59
2023/10/23 08:14:16;;;;;;;10.63;8.10;;;9.00;99.90;;;;;;4959643;28;20938;-60
2023/10/23 08:16:44;;;;;;;9.53;8.20;;;9.00;99.90;;;;;;4959276;28;20558;-58
2023/10/23 08:19:14;;;;;;;9.20;8.30;;;9.10;99.90;;;;;;4959053;28;20473;-58
2023/10/23 08:21:42;;;;;;;9.17;8.23;;;9.10;99.90;;;;;;4956461;28;20482;-58
2023/10/23 08:24:10;;;;;;;8.70;7.30;;;9.20;99.90;;;;;;4956133;28;20975;-59
2023/10/23 08:26:39;;;;;;;9.20;8.03;;;9.20;99.90;;;;;;4957865;28;20505;-58
2023/10/23 08:29:07;;;;;;;10.33;7.33;;;9.30;99.90;;;;;;4961525;28;20498;-59
2023/10/23 08:31:35;;;;;;;10.57;7.43;;;9.40;99.90;;;;;;4959580;28;20987;-59
2023/10/23 08:34:08;;;;;;;9.00;8.07;;;9.50;99.90;;;;;;4960588;28;20558;-59
2023/10/23 08:36:57;;;;;;;8.70;7.37;;;9.60;99.90;;;;;;4958320;28;20487;-58
2023/10/23 08:39:25;;;;;;;9.17;7.30;;;9.60;99.90;;;;;;4959563;28;20959;-59
2023/10/23 08:41:54;;;;;;;8.50;6.93;;;9.70;99.90;;;;;;4959984;28;20528;-58
2023/10/23 08:44:22;;;;;;;8.20;6.50;;;9.70;99.90;;;;;;4960527;28;21038;-58
2023/10/23 08:46:51;;;;;;;9.40;7.30;;;9.80;99.90;;;;;;4959475;28;20482;-58
2023/10/23 08:49:19;;;;;;;13.20;7.37;;;9.80;99.90;;;;;;4960849;28;20478;-58
2023/10/23 08:51:50;;;;;;;7.87;6.63;;;9.90;99.90;;;;;;4959671;28;21010;-59
2023/10/23 08:54:21;;;;;;;7.40;6.53;;;10.00;99.90;;;;;;4959342;28;20478;-58
2023/10/23 08:56:53;;;;;;;7.40;6.23;;;10.00;99.90;;;;;;4953333;28;20494;-58
2023/10/23 08:59:21;;;;;;;8.37;6.77;;;10.10;99.90;;;;;;4960692;28;20875;-59
2023/10/23 09:01:49;;;;;;;7.73;6.40;;;10.10;99.90;;;;;;4960618;28;20920;-58
2023/10/23 09:04:18;;;;;;;9.97;6.70;;;10.20;99.90;;;;;;4959963;28;20479;-58
2023/10/23 09:06:47;;;;;;;7.83;6.40;;;10.30;99.90;;;;;;4960099;28;20548;-58
2023/10/23 09:09:16;;;;;;;7.53;5.70;;;10.30;99.90;;;;;;4960262;28;20506;-59
2023/10/23 09:11:48;;;;;;;7.50;5.93;;;10.40;99.90;;;;;;4959694;28;20483;-58
2023/10/23 09:14:24;;;;;;;7.87;6.20;;;10.40;99.90;;;;;;4957887;28;20569;-58
2023/10/23 09:16:53;;;;;;;7.80;5.83;;;10.40;99.90;;;;;;4958726;28;20494;-59
2023/10/23 09:19:26;;;;;;;6.40;5.03;;;10.40;99.90;;;;;;4959928;28;20471;-59
2023/10/23 09:21:55;;;;;;;7.90;5.10;;;10.50;99.90;;;;;;4958632;28;20477;-58
2023/10/23 09:24:24;;;;;;;7.27;5.23;;;10.50;99.90;;;;;;4959032;28;20529;-59
2023/10/23 09:26:54;;;;;;;5.57;4.80;;;10.60;99.90;;;;;;4947162;28;21043;-59
2023/10/23 09:29:23;;;;;;;5.57;4.53;;;10.60;99.90;;;;;;4953071;28;20917;-59
2023/10/23 09:31:51;;;;;;;6.90;4.70;;;10.70;99.90;;;;;;4958809;28;20469;-59
2023/10/23 09:34:19;;;;;;;6.93;5.00;;;10.80;99.90;;;;;;4959776;28;20481;-59
2023/10/23 09:36:50;;;;;;;5.20;4.70;;;10.90;99.90;;;;;;4956359;28;20496;-59
2023/10/23 09:39:19;;;;;;;5.33;4.67;;;11.10;99.90;;;;;;4959061;28;20474;-59
2023/10/23 09:41:47;;;;;;;7.23;4.90;;;11.20;99.90;;;;;;4960012;28;20473;-59
2023/10/23 09:44:17;;;;;;;4.47;4.07;;;11.30;99.90;;;;;;4959743;28;20560;-59
2023/10/23 09:46:48;;;;;;;5.73;4.03;;;11.30;99.90;;;;;;4955832;28;20560;-58
2023/10/23 09:49:16;;;;;;;5.53;4.00;;;11.40;99.90;;;;;;4957019;28;20474;-58
2023/10/23 09:51:49;;;;;;;4.40;3.47;;;11.40;99.90;;;;;;4959750;28;20859;-58
2023/10/23 09:54:20;;;;;;;3.90;3.10;;;11.50;99.90;;;;;;4957679;28;20471;-59
2023/10/23 09:56:50;;;;;;;6.50;3.47;;;11.50;99.90;;;;;;4956388;28;20489;-59
2023/10/23 09:59:21;;;;;;;4.07;3.67;;;11.60;99.90;;;;;;4958125;28;20482;-59
2023/10/23 10:01:51;;;;;;;3.70;3.20;;;11.70;99.90;;;;;;4961114;28;21172;-59
2023/10/23 10:04:26;;;;;;;6.20;3.30;;;11.80;99.90;;;;;;4958460;28;20474;-61
2023/10/23 10:06:56;;;;;;;4.33;2.80;;;11.90;99.90;;;;;;4959755;28;20543;-63
2023/10/23 10:09:25;;;;;;;3.90;2.90;;;12.10;99.90;;;;;;4963332;28;20497;-60
2023/10/23 10:11:55;;;;;;;2.53;2.33;;;12.20;99.90;;;;;;4965659;28;20568;-62
2023/10/23 10:14:26;;;;;;;2.97;2.60;;;12.30;99.90;;;;;;4963947;28;20474;-59
2023/10/23 10:16:56;;;;;;;2.77;2.57;;;12.50;99.90;;;;;;4964024;28;20506;-58
2023/10/23 10:19:25;;;;;;;2.60;2.40;;;12.60;99.90;;;;;;4964521;28;20474;-58
2023/10/23 10:22:03;;;;;;;2.63;2.27;;;12.70;99.90;;;;;;4962592;28;20462;-57
2023/10/23 10:24:33;;;;;;;4.00;2.50;;;12.70;99.90;;;;;;4964262;28;20501;-59
2023/10/23 10:27:03;;;;;;;2.60;2.23;;;12.80;99.90;;;;;;4963715;28;20932;-60
2023/10/23 10:29:33;;;;;;;2.40;2.20;;;12.80;99.90;;;;;;4959766;28;20521;-60
2023/10/23 10:32:06;;;;;;;2.83;2.33;;;12.90;99.90;;;;;;4965714;28;20477;-62
2023/10/23 10:34:48;;;;;;;3.37;2.23;;;13.00;99.90;;;;;;4966381;28;20505;-60
2023/10/23 10:37:25;;;;;;;2.60;2.40;;;13.10;99.90;;;;;;4964081;28;20485;-60
2023/10/23 10:40:07;;;;;;;3.00;2.60;;;13.20;99.90;;;;;;4959287;28;20470;-61
2023/10/23 10:42:37;;;;;;;3.07;2.30;;;13.20;99.90;;;;;;4964523;28;20477;-63
2023/10/23 10:45:16;;;;;;;4.70;2.33;;;13.20;99.90;;;;;;4967880;28;20503;-61
2023/10/23 10:47:46;;;;;;;3.00;2.20;;;13.30;99.90;;;;;;4963851;28;20510;-62
2023/10/23 10:50:34;;;;;;;3.83;1.97;;;13.30;99.90;;;;;;4960298;28;20466;-63
2023/10/23 10:53:03;;;;;;;2.90;2.00;;;13.40;99.90;;;;;;4961799;28;20474;-59
2023/10/23 10:55:32;;;;;;;4.23;2.20;;;13.50;99.90;;;;;;4963442;28;20526;-59
2023/10/23 10:58:00;;;;;;;2.70;2.13;;;13.50;99.90;;;;;;4963830;28;20545;-59
2023/10/23 11:00:35;;;;;;;2.17;1.97;;;13.60;99.90;;;;;;4962133;28;20470;-59
2023/10/23 11:03:04;;;;;;;2.50;2.30;;;13.60;99.90;;;;;;4964381;28;20902;-59
2023/10/23 11:05:33;;;;;;;2.53;2.10;;;13.70;99.90;;;;;;4963203;28;20874;-60
2023/10/23 11:08:03;;;;;;;3.60;1.80;;;13.80;99.90;;;;;;4962568;28;20507;-61
2023/10/23 11:10:31;;;;;;;3.20;2.17;;;13.90;99.90;;;;;;4963836;28;20471;-62
2023/10/23 11:13:00;;;;;;;2.77;2.00;;;14.00;99.90;;;;;;4962965;28;20503;-61
2023/10/23 11:15:28;;;;;;;2.10;1.90;;;14.00;99.90;;;;;;4961999;28;20500;-62
2023/10/23 11:17:57;;;;;;;2.43;2.23;;;14.20;99.90;;;;;;4962512;28;20493;-59
2023/10/23 11:20:30;;;;;;;2.30;2.10;;;14.30;99.90;;;;;;4960037;28;21372;-59
2023/10/23 11:23:00;;;;;;;2.23;2.03;;;14.50;99.90;;;;;;4961778;28;20482;-58
2023/10/23 11:25:28;;;;;;;4.07;2.20;;;14.70;99.90;;;;;;4959124;28;20901;-60
2023/10/23 11:27:57;;;;;;;2.30;2.07;;;15.10;99.90;;;;;;4961357;28;20495;-61
2023/10/23 11:30:26;;;;;;;2.53;2.33;;;15.50;99.90;;;;;;4961590;28;20473;-61
2023/10/23 11:32:56;;;;;;;2.00;1.90;;;16.20;99.90;;;;;;4961770;28;21130;-58
2023/10/23 11:35:33;;;;;;;2.27;1.90;;;16.90;99.90;;;;;;4961885;28;20490;-59
2023/10/23 11:38:01;;;;;;;2.30;1.90;;;18.20;99.90;;;;;;4962980;28;20474;-63
2023/10/23 11:40:34;;;;;;;4.23;2.20;;;20.30;99.90;;;;;;4958955;28;20499;-62
2023/10/23 11:43:02;;;;;;;1.93;1.80;;;22.60;99.90;;;;;;4960718;28;20479;-62
2023/10/23 11:45:32;;;;;;;2.10;1.60;;;24.80;99.90;;;;;;4957157;28;20521;-59
2023/10/23 11:48:00;;;;;;;1.50;1.40;;;26.50;85.70;;;;;;4958005;28;20498;-59
2023/10/23 11:50:31;;;;;;;2.10;1.73;;;28.40;63.20;;;;;;4959434;28;21015;-62
2023/10/23 11:52:59;;;;;;;1.43;1.33;;;30.50;51.40;;;;;;4958060;28;21435;-60
2023/10/23 11:55:27;;;;;;;2.33;1.73;;;32.50;45.40;;;;;;4959117;28;20492;-60
2023/10/23 11:57:56;;;;;;;4.17;1.57;;;34.00;39.20;;;;;;4958538;28;20486;-60
2023/10/23 12:00:24;;;;;;;3.70;1.60;;;34.70;37.70;;;;;;4957795;28;20474;-62
2023/10/23 12:02:52;;;;;;;4.30;1.80;;;35.40;34.20;;;;;;4961711;28;20483;-64
2023/10/23 12:05:23;;;;;;;1.43;1.33;;;35.60;33.90;;;;;;4962135;28;20525;-64
2023/10/23 12:07:54;;;;;;;16.38;15.10;;;35.40;33.10;;;;;;4959081;28;20482;-60
2023/10/23 12:10:24;;;;;;;4.10;3.15;;;35.00;33.20;;;;;;4960300;28;20202;-61
2023/10/23 12:12:53;;;;;;;4.80;1.85;;;34.80;32.90;;;;;;4959166;28;20326;-62
2023/10/23 12:15:23;;;;;;;2.17;1.60;;;34.50;32.30;;;;;;4959217;28;20229;-61
2023/10/23 12:17:52;;;;;;;1.80;1.70;;;33.90;33.00;;;;;;4957088;28;20229;-65
2023/10/23 12:20:21;;;;;;;2.72;1.52;;;33.50;33.40;;;;;;4961827;28;20209;-64
2023/10/23 12:22:51;;;;;;;1.60;1.50;;;33.40;32.30;;;;;;4954738;28;20274;-61
2023/10/23 12:25:20;;;;;;;1.95;1.65;;;33.10;32.50;;;;;;4962415;28;20767;-62
2023/10/23 12:27:48;;;;;;;1.30;1.20;;;32.40;33.50;;;;;;4957587;28;20629;-62
2023/10/23 12:30:16;;;;;;;1.63;1.52;;;31.90;33.70;;;;;;4958716;28;20214;-60
2023/10/23 12:32:56;;;;;;;1.80;1.33;;;31.80;34.00;;;;;;4953072;28;20719;-61
2023/10/23 12:35:44;;;;;;;3.65;1.42;;;31.20;34.10;;;;;;4955652;28;20758;-60
2023/10/23 12:38:13;;;;;;;1.35;1.15;;;30.60;35.10;;;;;;4954953;28;20214;-63
2023/10/23 12:40:43;;;;;;;2.03;1.63;;;30.30;35.20;;;;;;4957040;28;20218;-61
2023/10/23 12:43:11;;;;;;;2.22;1.63;;;30.10;35.20;;;;;;4955697;28;20238;-61
2023/10/23 12:45:39;;;;;;;1.80;1.55;;;29.80;36.50;;;;;;4957552;28;20234;-62
2023/10/23 12:48:08;;;;;;;2.25;1.48;;;29.10;37.10;;;;;;4958045;28;20768;-62
2023/10/23 12:50:36;;;;;;;2.03;1.60;;;28.50;38.70;;;;;;4956287;28;20218;-64
2023/10/23 12:53:05;;;;;;;1.65;1.55;;;28.10;39.10;;;;;;4951235;28;20213;-63
2023/10/23 12:55:34;;;;;;;1.37;1.27;;;27.90;40.40;;;;;;4957376;28;20273;-63
2023/10/23 12:58:03;;;;;;;1.70;1.60;;;27.90;41.70;;;;;;4961132;28;20782;-63
2023/10/23 13:00:31;;;;;;;1.67;1.57;;;27.80;44.70;;;;;;4954004;28;20549;-63